Time;durP1;ratioP1;P1;durP2;ratioP2;P2;SDS_P1;SDS_P2;PMS_P1;PMS_P2;Temp;Humidity;BMP_temperature;BMP_pressure;BME280_temperature;BME280_humidity;BME280_pressure;Samples;Min_cycle;Max_cycle;Signal;HPM_P1;HPM_P2
2023/10/05 00:04:40;;;;;;;7.82;2.17;;;13.70;99.90;;;;;;5115934;28;20036;-72
2023/10/05 00:09:48;;;;;;;8.77;2.20;;;13.60;99.90;;;;;;5115230;28;20054;-72
2023/10/05 00:12:19;;;;;;;6.63;2.33;;;13.70;99.90;;;;;;5115530;28;20556;-72
2023/10/05 00:14:48;;;;;;;6.63;1.88;;;13.60;99.90;;;;;;5114228;28;20044;-72
2023/10/05 00:17:18;;;;;;;9.30;2.03;;;13.60;99.90;;;;;;5109211;28;20047;-72
2023/10/05 00:19:44;;;;;;;7.13;2.08;;;13.70;99.90;;;;;;5115084;28;20432;-72
2023/10/05 00:22:11;;;;;;;7.30;1.67;;;13.70;99.90;;;;;;5105788;28;20048;-72
2023/10/05 00:24:37;;;;;;;5.15;1.52;;;13.70;99.90;;;;;;5114114;28;20043;-73
2023/10/05 00:27:09;;;;;;;7.00;2.22;;;13.70;99.90;;;;;;5114267;28;20061;-72
2023/10/05 00:29:41;;;;;;;7.35;2.38;;;13.80;99.90;;;;;;5113519;28;20031;-73
2023/10/05 00:32:18;;;;;;;9.38;2.22;;;13.80;99.90;;;;;;5115177;28;20513;-73
2023/10/05 00:34:47;;;;;;;15.32;2.55;;;13.70;99.90;;;;;;5097254;28;20118;-73
2023/10/05 00:37:13;;;;;;;8.45;2.20;;;13.70;99.90;;;;;;5115029;28;20082;-72
2023/10/05 00:39:41;;;;;;;10.30;2.22;;;13.70;99.90;;;;;;5113468;28;20043;-72
2023/10/05 00:42:08;;;;;;;8.13;2.58;;;13.70;99.90;;;;;;5096678;28;20036;-72
2023/10/05 00:44:36;;;;;;;10.30;2.67;;;13.70;99.90;;;;;;5113669;28;20119;-73
2023/10/05 00:47:06;;;;;;;8.13;1.63;;;13.80;99.90;;;;;;5096663;28;20032;-72
2023/10/05 00:49:53;;;;;;;6.60;2.22;;;13.70;99.90;;;;;;5114242;28;20436;-73
2023/10/05 00:52:24;;;;;;;7.70;2.20;;;13.70;99.90;;;;;;5113633;28;20048;-72
2023/10/05 00:54:53;;;;;;;6.15;2.13;;;13.70;99.90;;;;;;5096575;28;20031;-73
2023/10/05 00:57:22;;;;;;;12.73;3.35;;;13.70;99.90;;;;;;5114774;28;20051;-72
2023/10/05 01:05:34;;;;;;;5.45;1.60;;;13.70;99.90;;;;;;5114750;28;20035;-72
2023/10/05 01:08:04;;;;;;;13.40;2.10;;;13.70;99.90;;;;;;5114587;28;20080;-74
2023/10/05 01:10:43;;;;;;;5.55;1.85;;;13.70;99.90;;;;;;5113917;28;20055;-73
2023/10/05 01:13:32;;;;;;;6.88;2.42;;;13.80;99.90;;;;;;5096243;28;20462;-73
2023/10/05 01:15:59;;;;;;;6.38;2.50;;;13.80;99.90;;;;;;5113330;28;20067;-72
2023/10/05 01:18:26;;;;;;;9.73;2.22;;;13.80;99.90;;;;;;5114298;27;20039;-72
2023/10/05 01:20:52;;;;;;;5.25;1.75;;;13.80;99.90;;;;;;5112799;28;20047;-72
2023/10/05 01:23:28;;;;;;;11.23;1.88;;;13.80;99.90;;;;;;5113141;28;20051;-72
2023/10/05 01:25:54;;;;;;;4.47;2.00;;;13.80;99.90;;;;;;5112889;28;20379;-73
2023/10/05 01:28:21;;;;;;;6.43;2.38;;;13.80;99.90;;;;;;5112615;28;20050;-73
2023/10/05 01:30:47;;;;;;;6.55;2.20;;;13.80;99.90;;;;;;5095436;28;20122;-73
2023/10/05 01:33:13;;;;;;;8.23;3.15;;;13.80;99.90;;;;;;5113045;28;20164;-72
2023/10/05 01:35:41;;;;;;;8.27;2.78;;;13.80;99.90;;;;;;5112696;28;20514;-73
2023/10/05 01:38:07;;;;;;;8.85;2.33;;;13.80;99.90;;;;;;5112618;28;20039;-73
2023/10/05 01:40:36;;;;;;;7.93;2.05;;;13.80;99.90;;;;;;5113707;28;20047;-72
2023/10/05 01:43:02;;;;;;;7.82;2.60;;;13.80;99.90;;;;;;5112550;28;20043;-72
2023/10/05 01:45:33;;;;;;;5.95;1.95;;;13.80;99.90;;;;;;5112540;28;20040;-72
2023/10/05 01:48:04;;;;;;;5.63;2.05;;;13.80;99.90;;;;;;5113756;28;20039;-72
2023/10/05 01:50:32;;;;;;;10.10;2.30;;;13.80;99.90;;;;;;5113490;27;20031;-72
2023/10/05 01:55:40;;;;;;;11.35;3.20;;;13.80;99.90;;;;;;5112532;28;20050;-72
2023/10/05 01:58:06;;;;;;;7.13;2.40;;;13.80;99.90;;;;;;5113529;28;20040;-73
2023/10/05 02:00:37;;;;;;;8.20;1.63;;;13.70;99.90;;;;;;5111449;28;20411;-72
2023/10/05 02:03:11;;;;;;;10.50;2.13;;;13.70;99.90;;;;;;5094954;28;20050;-72
2023/10/05 02:05:37;;;;;;;6.65;1.92;;;13.70;99.90;;;;;;5113408;28;20046;-72
2023/10/05 02:08:03;;;;;;;7.70;1.67;;;13.80;99.90;;;;;;5113348;28;20036;-72
2023/10/05 02:10:32;;;;;;;6.47;1.95;;;13.80;99.90;;;;;;5111591;28;20043;-73
2023/10/05 02:13:01;;;;;;;6.85;2.33;;;13.80;99.90;;;;;;5112043;28;20036;-72
2023/10/05 02:15:29;;;;;;;7.97;1.98;;;13.80;99.90;;;;;;5113403;28;20036;-72
2023/10/05 02:18:00;;;;;;;9.45;2.45;;;13.80;99.90;;;;;;5113332;28;20407;-72
2023/10/05 02:22:57;;;;;;;6.25;1.88;;;13.80;99.90;;;;;;5113285;28;20100;-72
2023/10/05 02:25:33;;;;;;;7.97;2.28;;;13.80;99.90;;;;;;5111691;28;20047;-72
2023/10/05 02:27:59;;;;;;;9.02;3.30;;;13.70;99.90;;;;;;5112310;28;20130;-72
2023/10/05 02:30:27;;;;;;;8.38;2.15;;;13.70;99.90;;;;;;5111280;28;20044;-73
2023/10/05 02:32:58;;;;;;;6.80;1.75;;;13.70;99.90;;;;;;5094653;28;20050;-73
2023/10/05 02:35:32;;;;;;;5.60;1.85;;;13.70;99.90;;;;;;5111780;28;20410;-73
2023/10/05 02:37:59;;;;;;;4.05;1.88;;;13.80;99.90;;;;;;5111509;28;20047;-72
2023/10/05 02:40:35;;;;;;;6.82;2.15;;;13.80;99.90;;;;;;5111379;28;20050;-73
2023/10/05 02:43:05;;;;;;;6.60;3.15;;;13.80;99.90;;;;;;5111528;28;20080;-73
2023/10/05 02:45:31;;;;;;;8.77;1.92;;;13.80;99.90;;;;;;5111410;28;20051;-73
2023/10/05 02:47:57;;;;;;;9.30;2.78;;;13.80;99.90;;;;;;5094425;28;20046;-72
2023/10/05 02:50:23;;;;;;;6.57;2.20;;;13.80;99.90;;;;;;5110905;28;20040;-72
2023/10/05 02:52:48;;;;;;;9.05;2.33;;;13.80;99.90;;;;;;5111089;28;20084;-73
2023/10/05 02:55:14;;;;;;;9.52;1.95;;;13.80;99.90;;;;;;5112729;28;20035;-73
2023/10/05 02:57:43;;;;;;;7.60;2.95;;;13.70;99.90;;;;;;5112622;28;20032;-73
2023/10/05 03:00:11;;;;;;;6.03;1.70;;;13.80;99.90;;;;;;5112103;28;20051;-73
2023/10/05 03:02:45;;;;;;;10.57;2.25;;;13.70;99.90;;;;;;5112443;28;20641;-72
2023/10/05 03:05:11;;;;;;;8.02;2.05;;;13.70;99.90;;;;;;5112498;28;20392;-73
2023/10/05 03:07:40;;;;;;;8.75;2.35;;;13.70;99.90;;;;;;5112489;28;20120;-72
2023/10/05 03:10:07;;;;;;;11.23;2.50;;;13.80;99.90;;;;;;5110517;28;20044;-72
2023/10/05 03:12:34;;;;;;;5.97;1.75;;;13.70;99.90;;;;;;5094122;28;20044;-72
2023/10/05 03:15:05;;;;;;;11.07;2.15;;;13.70;99.90;;;;;;5111045;28;20036;-73
2023/10/05 03:17:32;;;;;;;13.15;2.15;;;13.70;99.90;;;;;;5112349;28;20050;-72
2023/10/05 03:19:57;;;;;;;7.93;1.77;;;13.70;99.90;;;;;;5110540;28;20178;-72
2023/10/05 03:22:23;;;;;;;6.55;2.55;;;13.70;99.90;;;;;;5112327;28;20123;-72
2023/10/05 03:24:49;;;;;;;12.38;2.72;;;13.70;99.90;;;;;;5111071;28;20040;-72
2023/10/05 03:27:21;;;;;;;11.20;1.85;;;13.70;99.90;;;;;;5093887;28;20065;-72
2023/10/05 03:29:47;;;;;;;8.30;2.05;;;13.70;99.90;;;;;;5111708;28;20047;-72
2023/10/05 03:32:13;;;;;;;7.90;2.20;;;13.70;99.90;;;;;;5111860;28;20087;-72
2023/10/05 03:34:45;;;;;;;10.10;1.98;;;13.70;99.90;;;;;;5110815;28;20550;-72
2023/10/05 03:37:15;;;;;;;13.05;2.65;;;13.70;99.90;;;;;;5110667;28;20085;-72
2023/10/05 03:42:25;;;;;;;12.13;2.35;;;13.80;99.90;;;;;;5110818;28;20057;-72
2023/10/05 03:45:06;;;;;;;11.10;2.25;;;13.70;99.90;;;;;;5111913;28;20068;-72
2023/10/05 03:47:37;;;;;;;8.93;2.35;;;13.70;99.90;;;;;;5110666;28;20075;-73
2023/10/05 03:50:16;;;;;;;12.82;2.78;;;13.80;99.90;;;;;;5110211;28;20050;-72
2023/10/05 03:52:44;;;;;;;5.57;2.00;;;13.80;99.90;;;;;;5111932;28;20039;-72
2023/10/05 03:55:11;;;;;;;7.38;2.20;;;13.80;99.90;;;;;;5111742;28;20119;-72
2023/10/05 03:57:38;;;;;;;9.15;2.67;;;13.80;99.90;;;;;;5111263;28;20091;-72
2023/10/05 04:00:23;;;;;;;6.95;2.40;;;13.80;99.90;;;;;;5111586;28;20032;-72
2023/10/05 04:02:52;;;;;;;10.55;2.40;;;13.80;99.90;;;;;;5110731;28;20043;-73
2023/10/05 04:05:22;;;;;;;7.90;1.95;;;13.80;99.90;;;;;;5111775;28;20529;-73
2023/10/05 04:07:50;;;;;;;6.32;2.13;;;13.80;99.90;;;;;;5111769;28;20070;-72
2023/10/05 04:10:20;;;;;;;8.55;2.42;;;13.80;99.90;;;;;;5092849;28;20040;-73
2023/10/05 04:12:46;;;;;;;6.88;2.20;;;13.80;99.90;;;;;;5093776;28;20114;-73
2023/10/05 04:15:13;;;;;;;10.68;2.70;;;13.80;99.90;;;;;;5092005;28;20206;-73
2023/10/05 04:17:39;;;;;;;11.48;3.47;;;13.70;99.90;;;;;;5109399;28;20108;-73
2023/10/05 04:20:17;;;;;;;8.65;2.50;;;13.70;99.90;;;;;;5109978;28;20121;-73
2023/10/05 04:22:43;;;;;;;6.22;2.00;;;13.70;99.90;;;;;;5092630;28;20047;-73
2023/10/05 04:25:08;;;;;;;8.88;2.58;;;13.70;99.90;;;;;;5113228;28;20043;-72
2023/10/05 04:27:34;;;;;;;7.10;2.67;;;13.70;99.90;;;;;;5115381;28;20510;-72
2023/10/05 04:30:00;;;;;;;12.10;2.63;;;13.70;99.90;;;;;;5114760;28;20036;-73
2023/10/05 04:32:26;;;;;;;7.07;2.15;;;13.70;99.90;;;;;;5113926;28;20036;-72
2023/10/05 04:34:52;;;;;;;6.95;2.00;;;13.70;99.90;;;;;;5115129;28;20035;-73
2023/10/05 04:37:18;;;;;;;11.05;2.38;;;13.70;99.90;;;;;;5115336;28;20494;-73
2023/10/05 04:39:43;;;;;;;6.60;2.25;;;13.60;99.90;;;;;;5114560;28;20036;-73
2023/10/05 04:42:14;;;;;;;17.38;2.72;;;13.60;99.90;;;;;;5115485;28;20043;-73
2023/10/05 04:44:41;;;;;;;9.38;2.50;;;13.70;99.90;;;;;;5115452;28;20043;-73
2023/10/05 04:47:09;;;;;;;10.65;3.00;;;13.70;99.90;;;;;;5096950;28;20040;-73
2023/10/05 04:49:37;;;;;;;6.70;2.03;;;13.70;99.90;;;;;;5113311;28;20475;-73
2023/10/05 04:52:06;;;;;;;11.05;2.45;;;13.60;99.90;;;;;;5115069;28;20078;-73
2023/10/05 04:54:38;;;;;;;7.65;2.25;;;13.60;99.90;;;;;;5114621;28;20040;-73
2023/10/05 04:57:07;;;;;;;8.98;2.45;;;13.60;99.90;;;;;;5113463;28;20039;-73
2023/10/05 05:02:21;;;;;;;5.32;2.13;;;13.60;99.90;;;;;;5114772;28;20054;-73
2023/10/05 05:07:17;;;;;;;8.02;2.97;;;13.70;99.90;;;;;;5113410;28;20047;-74
2023/10/05 05:09:43;;;;;;;7.00;2.47;;;13.60;99.90;;;;;;5112941;28;20040;-73
2023/10/05 05:12:16;;;;;;;11.73;2.67;;;13.70;99.90;;;;;;5114526;28;20126;-73
2023/10/05 05:14:43;;;;;;;9.98;2.88;;;13.70;99.90;;;;;;5096210;28;20084;-73
2023/10/05 05:17:12;;;;;;;12.73;2.30;;;13.70;99.90;;;;;;5112947;28;20135;-73
2023/10/05 05:19:39;;;;;;;12.32;2.70;;;13.70;99.90;;;;;;5112659;28;20036;-73
2023/10/05 05:22:05;;;;;;;8.95;3.00;;;13.70;99.90;;;;;;5112985;28;20046;-73
2023/10/05 05:24:35;;;;;;;10.30;3.40;;;13.70;99.90;;;;;;5114229;28;20028;-73
2023/10/05 05:27:04;;;;;;;13.48;2.90;;;13.70;99.90;;;;;;5114140;28;20036;-74
2023/10/05 05:29:33;;;;;;;13.10;2.00;;;13.70;99.90;;;;;;5113719;27;20043;-74
2023/10/05 05:32:11;;;;;;;10.77;2.45;;;13.70;99.90;;;;;;5112590;28;20145;-74
2023/10/05 05:34:41;;;;;;;8.27;2.97;;;13.70;99.90;;;;;;5112704;28;20040;-74
2023/10/05 05:37:08;;;;;;;13.25;3.70;;;13.70;99.90;;;;;;5111199;28;20044;-74
2023/10/05 05:39:40;;;;;;;13.10;4.28;;;13.70;99.90;;;;;;5112057;28;20408;-74
2023/10/05 05:42:14;;;;;;;13.45;2.90;;;13.70;99.90;;;;;;5095577;28;20047;-73
2023/10/05 05:44:40;;;;;;;6.85;2.67;;;13.70;99.90;;;;;;5112510;28;20577;-74
2023/10/05 05:47:10;;;;;;;10.25;2.38;;;13.70;99.90;;;;;;5095619;28;20044;-74
2023/10/05 05:49:45;;;;;;;10.75;3.25;;;13.80;99.90;;;;;;5112070;28;20544;-73
2023/10/05 05:52:12;;;;;;;11.35;2.47;;;13.80;99.90;;;;;;5113911;28;20088;-73
2023/10/05 05:54:42;;;;;;;14.63;3.15;;;13.80;99.90;;;;;;5113779;28;20075;-74
2023/10/05 05:57:10;;;;;;;9.30;4.00;;;13.90;99.90;;;;;;5113529;28;20082;-73
2023/10/05 05:59:41;;;;;;;12.07;2.90;;;13.90;99.90;;;;;;5111751;28;20040;-73
2023/10/05 06:02:08;;;;;;;11.30;3.00;;;13.90;99.90;;;;;;5112268;28;20367;-73
2023/10/05 06:04:40;;;;;;;12.52;2.60;;;14.00;99.90;;;;;;5113717;28;20035;-74
2023/10/05 06:07:13;;;;;;;10.05;2.63;;;14.00;99.90;;;;;;5112179;28;20469;-73
2023/10/05 06:09:45;;;;;;;10.98;2.45;;;14.00;99.90;;;;;;5111576;28;20071;-73
2023/10/05 06:12:12;;;;;;;9.00;3.17;;;14.10;99.90;;;;;;5113244;28;20490;-73
2023/10/05 06:14:41;;;;;;;11.80;3.05;;;14.10;99.90;;;;;;5113065;28;20035;-73
2023/10/05 06:17:10;;;;;;;13.38;2.78;;;14.20;99.90;;;;;;5111922;28;20040;-73
2023/10/05 06:19:36;;;;;;;10.68;3.42;;;14.20;99.90;;;;;;5112912;28;20085;-73
2023/10/05 06:22:05;;;;;;;16.05;2.85;;;14.20;99.90;;;;;;5113036;28;20035;-73
2023/10/05 06:24:31;;;;;;;7.40;2.83;;;14.20;99.90;;;;;;5110972;28;20048;-73
2023/10/05 06:26:56;;;;;;;20.13;3.88;;;14.30;99.90;;;;;;5108081;28;20042;-73
2023/10/05 06:29:22;;;;;;;8.43;3.28;;;14.30;99.90;;;;;;5112631;28;20040;-73
2023/10/05 06:31:47;;;;;;;11.40;2.45;;;14.30;99.90;;;;;;5111323;28;20047;-73
2023/10/05 06:34:13;;;;;;;10.65;2.60;;;14.30;99.90;;;;;;5111858;28;20574;-73
2023/10/05 06:36:39;;;;;;;10.55;3.03;;;14.30;99.90;;;;;;5111381;28;20043;-73
2023/10/05 06:39:06;;;;;;;16.35;3.00;;;14.40;99.90;;;;;;5110899;28;20040;-73
2023/10/05 06:41:34;;;;;;;8.02;2.63;;;14.40;99.90;;;;;;5112637;28;20047;-75
2023/10/05 06:44:00;;;;;;;13.35;2.95;;;14.40;99.90;;;;;;5111346;28;20043;-76
2023/10/05 06:46:27;;;;;;;16.08;4.22;;;14.50;99.90;;;;;;5111343;28;20541;-73
2023/10/05 06:48:53;;;;;;;13.40;3.55;;;14.50;99.90;;;;;;5111065;28;20035;-73
2023/10/05 06:51:26;;;;;;;11.68;2.78;;;14.50;99.90;;;;;;5111568;28;20146;-73
2023/10/05 06:53:52;;;;;;;19.55;4.82;;;14.60;99.90;;;;;;5099287;28;20031;-73
2023/10/05 06:56:19;;;;;;;11.98;3.13;;;14.60;99.90;;;;;;5109523;28;20036;-74
2023/10/05 06:58:45;;;;;;;9.57;2.70;;;14.60;99.90;;;;;;5092466;28;20119;-73
2023/10/05 07:01:11;;;;;;;14.70;3.08;;;14.70;99.90;;;;;;5090644;28;20071;-74
2023/10/05 07:03:36;;;;;;;12.88;2.72;;;14.70;99.90;;;;;;5091061;28;20039;-74
2023/10/05 07:06:05;;;;;;;10.70;3.67;;;14.80;99.90;;;;;;5090942;28;20036;-74
2023/10/05 07:08:32;;;;;;;10.48;3.03;;;14.80;99.90;;;;;;5090477;28;20036;-73
2023/10/05 07:10:57;;;;;;;15.32;3.33;;;14.80;99.90;;;;;;5090234;28;20074;-73
2023/10/05 07:13:24;;;;;;;16.50;3.30;;;14.90;99.90;;;;;;5090583;28;20100;-73
2023/10/05 07:15:50;;;;;;;9.95;3.13;;;14.90;99.90;;;;;;5090635;28;20463;-74
2023/10/05 07:18:18;;;;;;;10.55;3.20;;;14.90;99.90;;;;;;5090628;28;20075;-73
2023/10/05 07:20:44;;;;;;;8.20;2.72;;;15.00;99.90;;;;;;5090254;28;20044;-73
2023/10/05 07:23:10;;;;;;;9.85;2.90;;;15.10;99.90;;;;;;5090768;28;20077;-73
2023/10/05 07:25:36;;;;;;;11.23;3.58;;;15.00;99.90;;;;;;5091724;28;20078;-72
2023/10/05 07:28:03;;;;;;;7.13;3.65;;;15.10;99.90;;;;;;5090450;28;20051;-73
2023/10/05 07:30:29;;;;;;;10.85;3.70;;;15.20;99.90;;;;;;5091418;28;20119;-73
2023/10/05 07:32:55;;;;;;;8.25;3.15;;;15.20;99.90;;;;;;5091833;28;20119;-73
2023/10/05 07:35:21;;;;;;;15.93;3.53;;;15.20;99.90;;;;;;5091675;28;20032;-74
2023/10/05 07:37:47;;;;;;;13.98;3.08;;;15.20;99.90;;;;;;5091758;28;20036;-74
2023/10/05 07:40:13;;;;;;;17.85;3.55;;;15.20;99.90;;;;;;5089922;28;20169;-74
2023/10/05 07:42:39;;;;;;;14.13;3.17;;;15.30;99.90;;;;;;5090585;28;20052;-74
2023/10/05 07:45:07;;;;;;;11.15;3.28;;;15.30;99.90;;;;;;5090329;28;20054;-74
2023/10/05 07:47:39;;;;;;;14.98;2.95;;;15.30;99.90;;;;;;5091538;28;20499;-73
2023/10/05 07:50:06;;;;;;;14.32;3.50;;;15.30;99.90;;;;;;5073053;28;20134;-73
2023/10/05 07:52:32;;;;;;;16.23;4.28;;;15.30;99.90;;;;;;5090348;28;20040;-74
2023/10/05 07:54:57;;;;;;;11.90;3.22;;;15.40;99.90;;;;;;5090134;28;20042;-74
2023/10/05 07:57:23;;;;;;;11.38;3.13;;;15.40;99.90;;;;;;5079680;28;20110;-74
2023/10/05 07:59:48;;;;;;;17.90;3.42;;;15.50;99.90;;;;;;5110960;28;20057;-74
2023/10/05 08:02:14;;;;;;;12.50;3.13;;;15.50;99.90;;;;;;5113966;28;20031;-74
2023/10/05 08:04:41;;;;;;;12.13;2.80;;;15.50;99.90;;;;;;5113825;28;20111;-74
2023/10/05 08:07:08;;;;;;;10.82;3.67;;;15.50;99.90;;;;;;5114387;28;20434;-74
2023/10/05 08:09:34;;;;;;;10.70;3.40;;;15.50;99.90;;;;;;5098901;22;20051;-73
2023/10/05 08:12:00;;;;;;;19.73;3.83;;;15.50;99.90;;;;;;4975070;28;20038;-72
2023/10/05 08:14:30;;;;;;;12.60;3.05;;;15.50;99.90;;;;;;4992270;28;20520;-74
2023/10/05 08:16:56;;;;;;;12.55;3.08;;;15.50;99.90;;;;;;4958496;28;20043;-73
2023/10/05 08:19:25;;;;;;;8.07;3.03;;;15.50;99.90;;;;;;5000750;28;20038;-73
2023/10/05 08:21:54;;;;;;;15.38;3.55;;;15.50;99.90;;;;;;5000427;28;20125;-73
2023/10/05 08:24:23;;;;;;;7.57;2.90;;;15.40;99.90;;;;;;5011396;28;20048;-74
2023/10/05 08:26:52;;;;;;;12.63;3.03;;;15.40;99.90;;;;;;5000297;28;20057;-73
2023/10/05 08:29:22;;;;;;;9.93;3.00;;;15.40;99.90;;;;;;4997895;28;20072;-73
2023/10/05 08:31:50;;;;;;;9.07;2.95;;;15.50;99.90;;;;;;5000455;28;20513;-73
2023/10/05 08:34:22;;;;;;;8.85;4.03;;;15.50;99.90;;;;;;4997329;28;20049;-73
2023/10/05 08:36:49;;;;;;;12.02;3.58;;;15.60;99.90;;;;;;4990606;28;20090;-73
2023/10/05 08:39:16;;;;;;;13.32;3.58;;;15.60;99.90;;;;;;4990303;28;20053;-72
2023/10/05 08:41:42;;;;;;;13.35;4.53;;;15.60;99.90;;;;;;4991765;28;20042;-72
2023/10/05 08:44:20;;;;;;;12.65;3.88;;;15.70;99.90;;;;;;4991906;28;20043;-72
2023/10/05 08:46:46;;;;;;;12.55;3.63;;;15.60;99.90;;;;;;4991677;28;20053;-72
2023/10/05 08:49:15;;;;;;;8.25;3.25;;;15.70;99.90;;;;;;4991459;28;20043;-72
2023/10/05 08:51:41;;;;;;;10.27;3.78;;;15.60;99.90;;;;;;4974034;28;20042;-72
2023/10/05 08:54:11;;;;;;;12.77;3.40;;;15.60;99.90;;;;;;4991828;28;20095;-72
2023/10/05 08:56:40;;;;;;;13.52;3.15;;;15.50;99.90;;;;;;4990478;28;20459;-72
2023/10/05 08:59:07;;;;;;;18.58;4.47;;;15.60;99.90;;;;;;4991166;28;20089;-72
2023/10/05 09:01:35;;;;;;;20.67;4.47;;;15.60;99.90;;;;;;4990514;28;20042;-72
2023/10/05 09:04:11;;;;;;;12.75;3.97;;;15.60;99.90;;;;;;4991549;28;20068;-72
2023/10/05 09:07:08;;;;;;;11.88;4.07;;;15.60;99.90;;;;;;4991553;28;20568;-73
2023/10/05 09:09:53;;;;;;;7.82;2.63;;;15.70;99.90;;;;;;4988850;28;20053;-71
2023/10/05 09:12:46;;;;;;;12.90;3.80;;;15.70;99.90;;;;;;4991237;28;20038;-70
2023/10/05 09:15:28;;;;;;;8.60;3.72;;;15.80;99.90;;;;;;4990262;28;20117;-70
2023/10/05 09:20:33;;;;;;;9.80;3.10;;;15.80;99.90;;;;;;4991007;28;20505;-72
2023/10/05 09:23:05;;;;;;;9.50;3.47;;;15.80;99.90;;;;;;4991054;28;20046;-73
2023/10/05 09:25:34;;;;;;;8.70;3.40;;;15.70;99.90;;;;;;4990294;28;20050;-73
2023/10/05 09:28:13;;;;;;;13.70;3.55;;;15.70;99.90;;;;;;4991018;28;20489;-72
2023/10/05 09:30:55;;;;;;;16.05;3.42;;;15.70;99.90;;;;;;4990894;28;20175;-73
2023/10/05 09:33:22;;;;;;;7.03;2.65;;;15.70;99.90;;;;;;4990058;28;20034;-73
2023/10/05 09:35:48;;;;;;;10.68;4.00;;;15.70;99.90;;;;;;4991058;28;20154;-73
2023/10/05 09:38:15;;;;;;;8.88;3.22;;;15.60;99.90;;;;;;4991160;28;20038;-73
2023/10/05 09:40:46;;;;;;;10.50;3.75;;;15.70;99.90;;;;;;4990514;28;20383;-73
2023/10/05 09:43:18;;;;;;;11.48;3.65;;;15.60;99.90;;;;;;4990069;28;20167;-73
2023/10/05 09:45:47;;;;;;;8.65;3.17;;;15.60;99.90;;;;;;4991071;28;20042;-73
2023/10/05 09:48:16;;;;;;;14.25;4.43;;;15.70;99.90;;;;;;4990902;28;20038;-72
2023/10/05 09:50:43;;;;;;;11.60;3.95;;;15.70;99.90;;;;;;4989794;28;20103;-73
2023/10/05 09:53:11;;;;;;;13.80;4.03;;;15.60;99.90;;;;;;4990784;28;20052;-73
2023/10/05 09:55:40;;;;;;;12.40;4.07;;;15.60;99.90;;;;;;5006150;28;20117;-73
2023/10/05 09:58:12;;;;;;;14.90;4.07;;;15.60;99.90;;;;;;4989762;28;20126;-72
2023/10/05 10:03:05;;;;;;;13.38;3.83;;;15.60;99.90;;;;;;4990789;28;20056;-73
2023/10/05 10:05:42;;;;;;;15.40;4.80;;;15.60;99.90;;;;;;4990686;28;20044;-72
2023/10/05 10:08:21;;;;;;;13.45;3.90;;;15.60;99.90;;;;;;4989457;28;20042;-72
2023/10/05 10:11:18;;;;;;;14.05;3.75;;;15.50;99.90;;;;;;4988834;28;20045;-73
2023/10/05 10:13:59;;;;;;;9.68;3.30;;;15.50;99.90;;;;;;4991681;28;20409;-73
2023/10/05 10:16:26;;;;;;;12.98;3.80;;;15.60;99.90;;;;;;4989472;28;20479;-74
2023/10/05 10:19:03;;;;;;;11.85;4.60;;;15.60;99.90;;;;;;4989113;28;20049;-74
2023/10/05 10:21:41;;;;;;;10.68;3.60;;;15.50;99.90;;;;;;4988864;28;20089;-73
2023/10/05 10:24:12;;;;;;;13.52;3.60;;;15.60;99.90;;;;;;4990366;28;20441;-73
2023/10/05 10:26:59;;;;;;;13.50;3.88;;;15.60;99.90;;;;;;4983472;28;20047;-73
2023/10/05 10:29:55;;;;;;;12.18;3.80;;;15.60;99.90;;;;;;4998782;28;20074;-73
2023/10/05 10:32:31;;;;;;;11.73;4.50;;;15.60;99.90;;;;;;4990179;28;20468;-73
2023/10/05 10:35:09;;;;;;;11.23;3.72;;;15.60;99.90;;;;;;5001916;28;20043;-73
2023/10/05 10:37:40;;;;;;;17.00;4.53;;;15.60;99.90;;;;;;5054523;28;20049;-73
2023/10/05 10:40:52;;;;;;;12.52;4.32;;;15.50;99.90;;;;;;4980176;28;20084;-73
2023/10/05 10:45:41;;;;;;;11.13;4.22;;;15.50;99.90;;;;;;4989998;28;20566;-73
2023/10/05 10:48:12;;;;;;;10.57;3.65;;;15.50;99.90;;;;;;4990188;28;20117;-73
2023/10/05 10:50:38;;;;;;;9.88;3.65;;;15.50;99.90;;;;;;4989807;28;20095;-73
2023/10/05 10:53:18;;;;;;;9.13;3.10;;;15.50;99.90;;;;;;4990096;28;20030;-73
2023/10/05 10:55:46;;;;;;;15.77;3.97;;;15.60;99.90;;;;;;4989537;28;20478;-73
2023/10/05 10:58:13;;;;;;;9.00;3.53;;;15.50;99.90;;;;;;4997559;28;20121;-73
2023/10/05 11:01:02;;;;;;;9.15;3.42;;;15.50;99.90;;;;;;4998341;28;20041;-73
2023/10/05 11:03:30;;;;;;;6.50;3.40;;;15.50;99.90;;;;;;4995641;28;20038;-74
2023/10/05 11:05:58;;;;;;;16.23;4.55;;;15.50;99.90;;;;;;5009351;28;20077;-74
2023/10/05 11:08:24;;;;;;;12.55;3.90;;;15.50;99.90;;;;;;5003353;28;20400;-73
2023/10/05 11:11:19;;;;;;;10.38;3.90;;;15.50;99.90;;;;;;4999440;28;20078;-74
2023/10/05 11:13:54;;;;;;;18.75;5.40;;;15.70;99.90;;;;;;4996938;28;20441;-74
2023/10/05 11:16:21;;;;;;;13.25;4.20;;;15.90;99.90;;;;;;4981106;28;20034;-74
2023/10/05 11:19:03;;;;;;;12.18;4.53;;;16.00;99.90;;;;;;4998334;28;20041;-73
2023/10/05 11:21:43;;;;;;;13.85;5.00;;;16.10;99.90;;;;;;4998725;28;20050;-74
2023/10/05 11:24:10;;;;;;;14.70;4.88;;;16.10;99.90;;;;;;4998495;28;20493;-74
2023/10/05 11:29:28;;;;;;;11.77;3.38;;;16.10;99.90;;;;;;4994403;28;20044;-74
2023/10/05 11:32:19;;;;;;;12.35;4.15;;;16.10;99.90;;;;;;4997684;28;20522;-74
2023/10/05 11:34:46;;;;;;;15.60;4.13;;;16.00;99.90;;;;;;4998106;28;20413;-73
2023/10/05 11:37:16;;;;;;;12.73;5.03;;;16.00;99.90;;;;;;5000940;28;20121;-73
2023/10/05 11:39:50;;;;;;;10.93;4.13;;;16.00;99.90;;;;;;4998277;28;20463;-74
2023/10/05 11:42:24;;;;;;;12.68;4.05;;;16.00;99.90;;;;;;5001280;28;20035;-74
2023/10/05 11:45:00;;;;;;;9.18;3.67;;;16.00;99.90;;;;;;5000458;28;20037;-73
2023/10/05 11:47:35;;;;;;;14.27;3.85;;;15.90;99.90;;;;;;4992887;28;20045;-73
2023/10/05 11:50:08;;;;;;;9.40;3.45;;;15.90;99.90;;;;;;4992112;28;20047;-75
2023/10/05 11:52:38;;;;;;;14.52;6.72;;;15.90;99.90;;;;;;4992828;28;20034;-75
2023/10/05 11:55:07;;;;;;;13.43;4.57;;;15.80;99.90;;;;;;5007834;28;20034;-75
2023/10/05 11:57:33;;;;;;;10.50;3.47;;;15.80;99.90;;;;;;4991857;28;20038;-74
2023/10/05 12:00:05;;;;;;;8.02;2.85;;;15.70;99.90;;;;;;4992170;28;20069;-74
2023/10/05 12:02:30;;;;;;;13.85;3.95;;;15.60;99.90;;;;;;4992463;28;20521;-74
2023/10/05 12:04:56;;;;;;;16.98;4.43;;;15.60;99.90;;;;;;4992613;28;20030;-74
2023/10/05 12:07:25;;;;;;;13.43;4.60;;;15.70;99.90;;;;;;4992589;28;20559;-73
2023/10/05 12:09:51;;;;;;;13.45;4.28;;;15.70;99.90;;;;;;4990720;28;20046;-74
2023/10/05 12:12:18;;;;;;;10.20;3.45;;;15.70;99.90;;;;;;4992197;28;20414;-73
2023/10/05 12:14:44;;;;;;;12.52;4.20;;;15.80;99.90;;;;;;4992341;28;20046;-73
2023/10/05 12:17:10;;;;;;;7.88;3.10;;;15.70;99.90;;;;;;4992457;28;20030;-73
2023/10/05 12:19:37;;;;;;;7.75;3.03;;;15.80;99.90;;;;;;4992042;28;20057;-74
2023/10/05 12:22:03;;;;;;;5.85;2.53;;;15.70;99.90;;;;;;4990935;28;20095;-73
2023/10/05 12:24:30;;;;;;;8.50;3.25;;;15.70;99.90;;;;;;4991064;28;20451;-74
2023/10/05 12:26:59;;;;;;;8.10;2.70;;;15.70;99.90;;;;;;4992319;28;20064;-75
2023/10/05 12:29:25;;;;;;;6.40;2.95;;;15.70;99.90;;;;;;4991786;28;20050;-74
2023/10/05 12:31:51;;;;;;;24.70;13.38;;;15.70;99.90;;;;;;4990892;28;20379;-73
2023/10/05 12:34:18;;;;;;;14.88;7.30;;;15.70;99.90;;;;;;4990840;28;20075;-74
2023/10/05 12:36:51;;;;;;;11.88;6.60;;;15.80;99.90;;;;;;4990872;28;20058;-75
2023/10/05 12:39:17;;;;;;;9.70;4.40;;;15.80;99.90;;;;;;4992003;28;20100;-75
2023/10/05 12:41:43;;;;;;;9.18;2.95;;;15.80;99.90;;;;;;4991049;28;20081;-73
2023/10/05 12:44:09;;;;;;;9.35;3.65;;;15.90;99.90;;;;;;4996485;28;20058;-75
2023/10/05 12:46:39;;;;;;;9.02;3.10;;;15.80;99.90;;;;;;4999488;28;20035;-74
2023/10/05 12:49:07;;;;;;;15.93;5.07;;;16.00;99.90;;;;;;4990565;28;20262;-73
2023/10/05 12:51:36;;;;;;;55.28;33.65;;;16.00;99.90;;;;;;4991673;28;20406;-73
2023/10/05 12:54:09;;;;;;;16.92;7.28;;;16.00;99.90;;;;;;4991849;28;20117;-74
2023/10/05 12:56:38;;;;;;;16.15;7.60;;;16.00;99.90;;;;;;4990420;28;20034;-74
2023/10/05 12:59:10;;;;;;;33.42;22.17;;;16.10;99.90;;;;;;4990698;28;20034;-74
2023/10/05 13:01:36;;;;;;;17.85;10.15;;;16.20;99.90;;;;;;4974940;28;20591;-73
2023/10/05 13:04:05;;;;;;;11.90;4.22;;;16.30;99.90;;;;;;4990524;28;20239;-73
2023/10/05 13:06:32;;;;;;;10.52;3.17;;;16.30;99.90;;;;;;4990221;28;20054;-74
2023/10/05 13:09:02;;;;;;;16.40;4.35;;;16.40;99.90;;;;;;4990967;28;20043;-73
2023/10/05 13:11:29;;;;;;;28.48;15.65;;;16.40;99.90;;;;;;4991173;28;20046;-73
2023/10/05 13:13:55;;;;;;;9.77;2.88;;;16.50;99.90;;;;;;4991430;28;20058;-73
2023/10/05 13:16:21;;;;;;;13.55;3.40;;;16.50;99.90;;;;;;4991461;28;20042;-75
2023/10/05 13:18:50;;;;;;;10.75;3.55;;;16.60;99.90;;;;;;4991349;28;20038;-72
2023/10/05 13:21:16;;;;;;;9.68;3.17;;;16.60;99.90;;;;;;4973719;28;20099;-72
2023/10/05 13:23:42;;;;;;;9.60;2.92;;;16.70;99.90;;;;;;4991474;28;20042;-72
2023/10/05 13:26:08;;;;;;;8.20;3.58;;;16.80;99.90;;;;;;4991513;28;20555;-72
2023/10/05 13:28:34;;;;;;;11.45;4.03;;;17.00;99.90;;;;;;4990165;28;20046;-72